createdAt,value
2023-01-25T04:36:14.699Z,55.03
2023-01-25T04:51:20.919Z,47.10
2023-01-25T05:06:25.651Z,46.03
2023-01-25T05:21:47.905Z,44.50
2023-01-25T05:36:52.818Z,39.97
2023-01-25T05:51:57.866Z,35.83
2023-01-25T06:07:02.550Z,28.90
2023-01-25T06:22:09.159Z,33.27
2023-01-25T06:37:13.651Z,28.70
2023-01-25T06:52:18.102Z,19.73
2023-01-25T07:07:22.469Z,20.27
2023-01-25T07:22:27.054Z,15.47
2023-01-25T07:37:34.058Z,18.30
2023-01-25T07:52:38.674Z,22.00
2023-01-25T08:07:43.296Z,23.70
2023-01-25T08:22:47.784Z,24.63
2023-01-25T08:37:52.245Z,23.00
2023-01-25T08:52:56.798Z,28.00
2023-01-25T09:08:01.770Z,32.33
2023-01-25T09:23:06.348Z,19.47
2023-01-25T09:38:11.040Z,18.77
2023-01-25T09:53:37.362Z,58.33
2023-01-25T10:08:47.982Z,18.93
2023-01-25T10:24:16.820Z,19.63
2023-01-25T10:39:21.990Z,21.40
2023-01-25T10:54:30.066Z,21.93
2023-01-25T11:09:37.354Z,27.70
2023-01-25T11:24:42.112Z,32.83
2023-01-25T11:39:56.870Z,41.77
2023-01-25T11:55:16.495Z,63.90
2023-01-25T12:10:35.063Z,70.73
2023-01-25T12:25:50.241Z,67.67
2023-01-25T12:41:00.315Z,63.97
2023-01-25T12:56:07.048Z,68.03
2023-01-25T13:11:21.309Z,59.80
2023-01-25T13:27:02.126Z,77.80
2023-01-25T13:42:20.544Z,68.33
2023-01-25T13:57:27.217Z,81.03
2023-01-25T14:12:39.919Z,92.40
2023-01-25T14:27:47.011Z,108.10
2023-01-25T14:42:54.451Z,104.43
2023-01-25T14:58:02.802Z,109.20
2023-01-25T15:13:22.743Z,99.43
2023-01-25T15:28:29.298Z,96.93
2023-01-25T15:43:33.780Z,100.33
2023-01-25T15:58:41.103Z,103.13
2023-01-25T16:13:45.613Z,95.77
2023-01-25T16:28:50.165Z,99.57
2023-01-25T16:43:54.734Z,104.80
2023-01-25T16:59:02.517Z,93.83
2023-01-25T17:14:07.465Z,101.87
2023-01-25T17:29:13.635Z,97.47
2023-01-25T17:44:21.341Z,97.37
2023-01-25T17:59:25.870Z,107.80
2023-01-25T18:14:30.400Z,125.17
2023-01-25T18:29:46.613Z,114.90
2023-01-25T18:44:51.542Z,114.40
2023-01-25T18:59:57.456Z,119.60
2023-01-25T19:15:02.776Z,113.90
2023-01-25T19:30:08.748Z,126.00
2023-01-25T19:45:13.610Z,125.90
2023-01-25T20:00:19.697Z,120.10
2023-01-25T20:15:24.189Z,107.50
2023-01-25T20:30:28.696Z,114.73
2023-01-25T20:45:34.779Z,98.60
2023-01-25T21:00:39.431Z,109.37
2023-01-25T21:31:16.509Z,105.60
2023-01-25T21:46:25.540Z,114.87
2023-01-25T22:01:30.077Z,101.10
2023-01-25T22:16:34.896Z,105.20
2023-01-25T22:31:39.869Z,109.40
2023-01-25T22:46:44.302Z,105.77
2023-01-25T23:01:48.836Z,115.57
2023-01-25T23:16:53.279Z,99.17
2023-01-25T23:31:57.852Z,103.87
2023-01-25T23:47:02.576Z,110.50
